Time;durP1;ratioP1;P1;durP2;ratioP2;P2;SDS_P1;SDS_P2;PMS_P1;PMS_P2;Temp;Humidity;BMP_temperature;BMP_pressure;BME280_temperature;BME280_humidity;BME280_pressure;Samples;Min_cycle;Max_cycle;Signal;HPM_P1;HPM_P2
2020/12/12 00:00:58;;;;;;;64.32;24.23;;;3.30;91.10;;;;;;5017464;28;20026;-76
2020/12/12 00:03:24;;;;;;;65.97;24.08;;;3.30;91.10;;;;;;5018407;28;20025;-77
2020/12/12 00:05:50;;;;;;;119.13;47.03;;;3.30;91.20;;;;;;5033261;28;20030;-75
2020/12/12 00:08:16;;;;;;;283.63;103.75;;;3.30;91.10;;;;;;5032889;28;20052;-77
2020/12/12 00:10:42;;;;;;;385.02;243.75;;;3.40;91.10;;;;;;5052757;28;20037;-78
2020/12/12 00:13:08;;;;;;;73.28;31.90;;;3.40;91.10;;;;;;5034495;28;20018;-75
2020/12/12 00:15:37;;;;;;;64.03;24.75;;;3.40;91.50;;;;;;5038836;28;20036;-75
2020/12/12 00:18:03;;;;;;;57.80;22.08;;;3.50;91.00;;;;;;5033850;28;20104;-76
2020/12/12 00:20:30;;;;;;;65.32;24.80;;;3.50;90.90;;;;;;5010100;28;20025;-76
2020/12/12 00:22:55;;;;;;;68.93;25.30;;;3.40;91.00;;;;;;5034554;28;20037;-76
2020/12/12 00:25:21;;;;;;;60.03;24.35;;;3.40;91.20;;;;;;5033192;28;20091;-75
2020/12/12 00:27:47;;;;;;;61.28;24.65;;;3.40;90.90;;;;;;5019220;28;20485;-75
2020/12/12 00:30:13;;;;;;;63.35;24.15;;;3.40;90.90;;;;;;5018332;28;20531;-76
2020/12/12 00:32:38;;;;;;;62.42;23.15;;;3.40;91.00;;;;;;5018820;28;20026;-75
2020/12/12 00:35:04;;;;;;;68.78;26.00;;;3.40;90.90;;;;;;5028179;28;20041;-75
2020/12/12 00:37:30;;;;;;;72.35;25.80;;;3.40;90.90;;;;;;5009724;28;20022;-76
2020/12/12 00:39:56;;;;;;;66.25;25.30;;;3.40;90.90;;;;;;5029865;28;20096;-75
2020/12/12 00:42:22;;;;;;;70.38;26.02;;;3.30;90.80;;;;;;5018217;28;20040;-76
2020/12/12 00:44:48;;;;;;;67.53;26.85;;;3.30;90.80;;;;;;5021658;28;20036;-75
2020/12/12 00:47:13;;;;;;;69.20;25.45;;;3.30;91.00;;;;;;5026957;28;20029;-75
2020/12/12 00:49:39;;;;;;;66.97;25.55;;;3.30;91.00;;;;;;5039706;28;20017;-76
2020/12/12 00:52:05;;;;;;;62.78;24.02;;;3.30;91.00;;;;;;5018452;28;20057;-76
2020/12/12 00:54:32;;;;;;;67.25;24.30;;;3.40;90.90;;;;;;5039337;28;20030;-77
2020/12/12 00:56:58;;;;;;;70.43;26.23;;;3.30;90.90;;;;;;5012485;28;20444;-75
2020/12/12 00:59:23;;;;;;;71.65;25.77;;;3.30;90.90;;;;;;5018976;28;20028;-75
2020/12/12 01:01:50;;;;;;;69.35;27.23;;;3.30;91.00;;;;;;5013173;28;20120;-76
2020/12/12 01:04:17;;;;;;;70.00;26.80;;;3.30;90.90;;;;;;5031631;28;20057;-76
2020/12/12 01:06:46;;;;;;;64.15;25.38;;;3.30;90.90;;;;;;5016166;28;20030;-75
2020/12/12 01:09:12;;;;;;;71.63;26.98;;;3.30;90.80;;;;;;5011449;28;20032;-76
2020/12/12 01:11:37;;;;;;;66.68;25.83;;;3.20;90.90;;;;;;5030913;28;20501;-76
2020/12/12 01:14:03;;;;;;;77.93;27.20;;;3.20;90.90;;;;;;5009942;28;20057;-75
2020/12/12 01:16:29;;;;;;;72.95;27.02;;;3.20;91.00;;;;;;5057053;28;20033;-76
2020/12/12 01:18:54;;;;;;;72.82;25.30;;;3.30;91.00;;;;;;5038207;28;20034;-75
2020/12/12 01:21:20;;;;;;;69.65;27.77;;;3.20;90.80;;;;;;5034575;28;20441;-75
2020/12/12 01:23:47;;;;;;;69.05;26.85;;;3.20;90.80;;;;;;5028237;28;20032;-76
2020/12/12 01:26:16;;;;;;;61.10;26.00;;;3.20;90.90;;;;;;5029702;28;20056;-75
2020/12/12 01:28:41;;;;;;;69.18;25.77;;;3.20;91.00;;;;;;5000871;28;20025;-76
2020/12/12 01:31:11;;;;;;;68.28;25.73;;;3.20;90.90;;;;;;5036204;28;20026;-76
2020/12/12 01:33:37;;;;;;;68.18;24.70;;;3.30;90.90;;;;;;5032652;28;20083;-76
2020/12/12 01:36:05;;;;;;;62.85;25.40;;;3.30;90.80;;;;;;5043775;28;20026;-76
2020/12/12 01:38:32;;;;;;;72.05;25.02;;;3.30;90.80;;;;;;5019544;28;20018;-76
2020/12/12 01:40:58;;;;;;;65.15;24.50;;;3.30;90.80;;;;;;4999077;28;20025;-74
2020/12/12 01:43:24;;;;;;;65.35;24.50;;;3.30;90.70;;;;;;5014526;28;20030;-76
2020/12/12 01:45:50;;;;;;;67.75;26.40;;;3.30;90.70;;;;;;5033757;28;20603;-75
2020/12/12 01:48:16;;;;;;;66.10;24.85;;;3.20;90.70;;;;;;5026522;28;20018;-75
2020/12/12 01:50:42;;;;;;;63.08;24.08;;;3.20;90.80;;;;;;5026940;28;20032;-76
2020/12/12 01:53:08;;;;;;;64.88;25.75;;;3.20;90.80;;;;;;5033783;28;20026;-75
2020/12/12 01:55:36;;;;;;;62.15;25.30;;;3.20;90.90;;;;;;5032201;28;20053;-75
2020/12/12 01:58:02;;;;;;;67.00;25.02;;;3.30;90.70;;;;;;5034323;28;20392;-75
2020/12/12 02:00:28;;;;;;;64.15;25.73;;;3.30;90.70;;;;;;5014685;28;20095;-75
2020/12/12 02:02:56;;;;;;;64.03;25.98;;;3.20;90.60;;;;;;5013560;28;20017;-75
2020/12/12 02:05:42;;;;;;;67.90;27.13;;;3.20;90.60;;;;;;5019017;28;20030;-75
2020/12/12 02:08:18;;;;;;;64.63;24.67;;;3.20;90.70;;;;;;5006270;28;20013;-76
2020/12/12 02:10:46;;;;;;;61.45;23.83;;;3.10;90.80;;;;;;5031700;28;20164;-75
2020/12/12 02:13:13;;;;;;;64.97;25.55;;;3.20;90.70;;;;;;5029883;28;20079;-76
2020/12/12 02:15:39;;;;;;;68.38;26.48;;;3.20;90.60;;;;;;5009454;28;20045;-76
2020/12/12 02:18:20;;;;;;;72.10;25.50;;;3.20;90.60;;;;;;5015686;28;20025;-75
2020/12/12 02:21:12;;;;;;;60.10;23.88;;;3.20;90.60;;;;;;5034883;28;20106;-75
2020/12/12 02:23:38;;;;;;;65.05;24.60;;;3.20;90.60;;;;;;5026129;28;20065;-75
2020/12/12 02:26:04;;;;;;;71.07;26.50;;;3.20;90.60;;;;;;5050215;28;20099;-75
2020/12/12 02:28:39;;;;;;;64.70;23.90;;;3.20;90.60;;;;;;5009472;28;20057;-75
2020/12/12 02:31:04;;;;;;;67.15;25.27;;;3.10;90.60;;;;;;5027997;28;20061;-75
2020/12/12 02:33:30;;;;;;;64.25;25.80;;;3.20;90.70;;;;;;5032754;28;20362;-76
2020/12/12 02:35:57;;;;;;;62.63;24.67;;;3.20;90.70;;;;;;5014264;28;20040;-75
2020/12/12 02:38:23;;;;;;;60.53;24.33;;;3.20;90.60;;;;;;5016916;28;20029;-75
2020/12/12 02:40:49;;;;;;;69.90;25.67;;;3.20;90.70;;;;;;5029601;28;20041;-75
2020/12/12 02:43:15;;;;;;;55.88;23.80;;;3.20;90.60;;;;;;5027414;28;20080;-76
2020/12/12 02:45:44;;;;;;;64.70;25.75;;;3.10;90.60;;;;;;5006634;28;20026;-76
2020/12/12 02:48:10;;;;;;;60.47;24.98;;;3.20;90.70;;;;;;5042846;28;20033;-75
2020/12/12 02:50:36;;;;;;;63.83;25.75;;;3.20;90.60;;;;;;5010037;28;20044;-76
2020/12/12 02:53:02;;;;;;;68.05;26.42;;;3.10;90.60;;;;;;5025235;28;20029;-75
2020/12/12 02:55:28;;;;;;;64.05;24.38;;;3.20;90.40;;;;;;5046211;28;20032;-75
2020/12/12 02:57:53;;;;;;;62.88;25.05;;;3.20;90.40;;;;;;5015464;28;20031;-76
2020/12/12 03:00:25;;;;;;;58.58;23.75;;;3.10;90.40;;;;;;5006562;28;20032;-76
2020/12/12 03:02:51;;;;;;;62.40;25.23;;;3.20;90.50;;;;;;5014864;28;20539;-75
2020/12/12 03:05:17;;;;;;;65.45;27.50;;;3.10;90.50;;;;;;5045930;28;20029;-75
2020/12/12 03:07:43;;;;;;;60.67;24.40;;;3.10;90.50;;;;;;5003324;28;20097;-76
2020/12/12 03:10:09;;;;;;;66.07;26.83;;;3.10;90.50;;;;;;5031307;28;20109;-76
2020/12/12 03:12:36;;;;;;;60.08;25.50;;;3.10;90.50;;;;;;5029401;28;20049;-76
2020/12/12 03:15:06;;;;;;;68.93;25.17;;;3.10;90.60;;;;;;5032451;28;20036;-78
2020/12/12 03:17:32;;;;;;;62.60;25.37;;;3.10;90.60;;;;;;5032571;28;20022;-76
2020/12/12 03:19:58;;;;;;;66.28;25.02;;;3.10;90.60;;;;;;5011426;28;20028;-76
2020/12/12 03:22:23;;;;;;;62.72;25.35;;;3.10;90.60;;;;;;5030713;28;20029;-75
2020/12/12 03:24:49;;;;;;;66.43;24.45;;;3.10;90.50;;;;;;5024541;28;20034;-76
2020/12/12 03:27:15;;;;;;;63.65;25.67;;;3.10;90.60;;;;;;5000960;28;20033;-75
2020/12/12 03:29:40;;;;;;;66.75;27.27;;;3.10;90.60;;;;;;5009594;28;20030;-75
2020/12/12 03:32:08;;;;;;;63.40;24.73;;;3.10;90.60;;;;;;5028295;28;20095;-76
2020/12/12 03:34:35;;;;;;;66.35;25.83;;;3.10;90.60;;;;;;5006311;28;617188;-75
2020/12/12 03:37:02;;;;;;;66.00;25.73;;;3.10;90.60;;;;;;5035939;28;20080;-76
2020/12/12 03:39:27;;;;;;;63.83;25.08;;;3.10;90.60;;;;;;5034291;28;20029;-76
2020/12/12 03:41:53;;;;;;;70.15;26.30;;;3.00;90.50;;;;;;5028810;28;20507;-76
2020/12/12 03:44:19;;;;;;;60.08;24.13;;;3.10;90.50;;;;;;5016192;28;20033;-76
2020/12/12 03:46:44;;;;;;;59.35;23.95;;;3.00;90.50;;;;;;5023799;28;20036;-75
2020/12/12 03:49:10;;;;;;;67.53;25.08;;;3.00;90.50;;;;;;5008877;28;20037;-75
2020/12/12 03:51:36;;;;;;;68.88;27.05;;;3.00;90.60;;;;;;5028746;28;20450;-75
2020/12/12 03:54:02;;;;;;;67.70;26.75;;;3.00;90.60;;;;;;5013873;28;20068;-76
2020/12/12 03:56:27;;;;;;;62.72;24.98;;;3.00;90.60;;;;;;5008769;28;20018;-75
2020/12/12 03:58:53;;;;;;;67.68;25.85;;;3.00;90.70;;;;;;5018884;28;20462;-76
2020/12/12 04:01:19;;;;;;;60.55;24.23;;;3.00;90.60;;;;;;5018679;28;20017;-75
2020/12/12 04:03:45;;;;;;;65.88;27.55;;;3.00;90.50;;;;;;5035333;28;20029;-75
2020/12/12 04:06:11;;;;;;;62.33;24.95;;;3.00;90.50;;;;;;5047448;28;20133;-76
2020/12/12 04:08:36;;;;;;;60.83;24.80;;;3.10;90.50;;;;;;5033611;28;20028;-75
2020/12/12 04:11:03;;;;;;;64.93;25.13;;;3.00;90.60;;;;;;5015888;28;20040;-75
2020/12/12 04:13:29;;;;;;;68.75;25.48;;;3.00;90.60;;;;;;5036571;28;20029;-75
2020/12/12 04:15:55;;;;;;;69.90;26.70;;;3.00;90.60;;;;;;5032120;28;20416;-75
2020/12/12 04:18:21;;;;;;;67.63;26.67;;;3.00;90.50;;;;;;5016538;28;20083;-76
2020/12/12 04:20:47;;;;;;;69.57;25.05;;;3.00;90.60;;;;;;5037729;28;20034;-76
2020/12/12 04:23:12;;;;;;;74.32;25.77;;;3.00;90.50;;;;;;5032331;28;20052;-76
2020/12/12 04:25:38;;;;;;;65.32;24.38;;;3.00;90.60;;;;;;5017113;28;20490;-75
2020/12/12 04:28:04;;;;;;;67.55;26.42;;;3.00;90.50;;;;;;5012172;28;20021;-76
2020/12/12 04:30:30;;;;;;;68.50;25.85;;;3.00;90.50;;;;;;5029720;28;20022;-75
2020/12/12 04:32:56;;;;;;;61.20;24.45;;;3.00;90.50;;;;;;5035929;28;20021;-75
2020/12/12 04:35:21;;;;;;;70.72;26.92;;;3.00;90.60;;;;;;5048497;28;20033;-76
2020/12/12 04:37:47;;;;;;;66.47;27.42;;;3.00;90.60;;;;;;5055772;28;20440;-75
2020/12/12 04:40:14;;;;;;;66.88;24.25;;;3.00;90.60;;;;;;5012644;28;20160;-75
2020/12/12 04:42:42;;;;;;;66.28;26.48;;;3.00;90.60;;;;;;5014614;28;20052;-75
2020/12/12 04:45:10;;;;;;;66.32;26.35;;;3.00;90.60;;;;;;5033045;28;20035;-75
2020/12/12 04:47:36;;;;;;;68.28;25.77;;;3.00;90.60;;;;;;5031863;28;20029;-75
2020/12/12 04:50:03;;;;;;;76.78;28.23;;;3.00;90.60;;;;;;5044292;28;20025;-75
2020/12/12 04:52:34;;;;;;;68.90;25.55;;;3.00;90.50;;;;;;5014202;28;20646;-76
2020/12/12 04:55:06;;;;;;;73.40;27.63;;;3.00;90.50;;;;;;5027120;28;20032;-76
2020/12/12 04:57:36;;;;;;;77.80;27.52;;;2.90;90.60;;;;;;5034967;28;20091;-75
2020/12/12 05:00:13;;;;;;;77.30;27.35;;;2.90;90.70;;;;;;5033428;28;20508;-75
2020/12/12 05:02:39;;;;;;;69.45;26.15;;;2.90;90.70;;;;;;5009906;28;20025;-76
2020/12/12 05:05:06;;;;;;;69.32;26.85;;;2.90;90.70;;;;;;5032485;28;20021;-76
2020/12/12 05:07:33;;;;;;;73.35;27.17;;;2.90;90.70;;;;;;5030346;22;20112;-76
2020/12/12 05:10:04;;;;;;;67.82;26.08;;;2.90;90.80;;;;;;5032603;28;20115;-76
2020/12/12 05:12:29;;;;;;;75.43;26.52;;;2.90;90.70;;;;;;5040875;28;20043;-77
2020/12/12 05:14:55;;;;;;;74.88;27.13;;;2.90;90.70;;;;;;5035386;28;20511;-76
2020/12/12 05:17:21;;;;;;;75.40;27.05;;;2.90;90.70;;;;;;5017757;28;20021;-77
2020/12/12 05:19:48;;;;;;;70.85;25.58;;;2.90;90.60;;;;;;5017899;28;20028;-77
2020/12/12 05:22:14;;;;;;;70.72;27.38;;;2.90;90.70;;;;;;5014625;28;20424;-77
2020/12/12 05:24:40;;;;;;;72.50;27.25;;;2.90;90.90;;;;;;5032673;28;20116;-76
2020/12/12 05:27:06;;;;;;;77.95;28.85;;;2.90;90.60;;;;;;5031915;28;20027;-76
2020/12/12 05:29:32;;;;;;;77.50;26.05;;;2.90;90.70;;;;;;5020120;28;20056;-77
2020/12/12 05:31:58;;;;;;;71.35;27.40;;;2.90;90.70;;;;;;5036292;28;20059;-77
2020/12/12 05:34:24;;;;;;;69.78;26.70;;;2.90;90.80;;;;;;5035070;28;20025;-77
2020/12/12 05:36:51;;;;;;;71.63;27.13;;;2.90;90.70;;;;;;5026023;28;20078;-77
2020/12/12 05:39:17;;;;;;;70.47;26.77;;;2.90;90.70;;;;;;5032926;28;20104;-77
2020/12/12 05:41:44;;;;;;;69.47;26.27;;;2.90;90.70;;;;;;5018212;28;20033;-77
2020/12/12 05:44:11;;;;;;;69.53;26.40;;;2.90;90.80;;;;;;5018139;28;20103;-77
2020/12/12 05:46:38;;;;;;;66.90;27.42;;;2.90;90.80;;;;;;5018138;28;20040;-77
2020/12/12 05:49:04;;;;;;;67.60;25.42;;;2.90;90.70;;;;;;5020439;28;20028;-76
2020/12/12 05:51:31;;;;;;;70.05;26.20;;;2.90;90.60;;;;;;5032185;28;20027;-76
2020/12/12 05:53:58;;;;;;;70.25;26.73;;;2.90;90.70;;;;;;5040262;28;20496;-77
2020/12/12 05:56:25;;;;;;;73.13;26.27;;;2.90;90.80;;;;;;5025634;28;20017;-77
2020/12/12 05:58:53;;;;;;;75.22;27.20;;;2.90;90.70;;;;;;5016363;28;20025;-77
2020/12/12 06:01:21;;;;;;;72.75;28.17;;;2.90;90.70;;;;;;5035766;28;20028;-77
2020/12/12 06:03:50;;;;;;;68.20;25.90;;;2.90;90.70;;;;;;5020941;28;20024;-76
2020/12/12 06:06:21;;;;;;;73.30;26.15;;;2.90;90.90;;;;;;5035257;28;20470;-76
2020/12/12 06:09:05;;;;;;;65.38;24.67;;;2.90;90.90;;;;;;5033474;28;20032;-77
2020/12/12 06:11:31;;;;;;;71.45;26.08;;;3.00;90.80;;;;;;5030117;28;20030;-77
2020/12/12 06:14:00;;;;;;;66.03;27.55;;;2.90;90.80;;;;;;5037539;28;20036;-77
2020/12/12 06:16:33;;;;;;;71.45;26.70;;;2.90;90.90;;;;;;5045389;28;20494;-77
2020/12/12 06:19:06;;;;;;;67.20;26.20;;;2.90;90.90;;;;;;5031990;28;20028;-77
2020/12/12 06:21:37;;;;;;;60.88;24.83;;;2.90;90.80;;;;;;5051544;28;20041;-78
2020/12/12 06:24:05;;;;;;;63.72;24.17;;;2.90;90.90;;;;;;5034855;28;20032;-77
2020/12/12 06:26:59;;;;;;;71.97;26.35;;;2.90;90.90;;;;;;5037550;28;20076;-77
2020/12/12 06:29:31;;;;;;;72.93;27.73;;;2.90;91.00;;;;;;5030916;28;20027;-77
2020/12/12 06:31:58;;;;;;;75.40;25.95;;;2.90;91.00;;;;;;5016739;28;20124;-77
2020/12/12 06:34:49;;;;;;;67.22;25.70;;;2.90;90.90;;;;;;5025042;28;20029;-78
2020/12/12 06:37:27;;;;;;;70.53;26.52;;;2.90;90.90;;;;;;5036521;28;20451;-77
2020/12/12 06:39:53;;;;;;;71.28;26.23;;;2.90;91.00;;;;;;5015858;28;20171;-78
2020/12/12 06:42:30;;;;;;;70.05;26.50;;;2.90;91.00;;;;;;5015743;28;20155;-78
2020/12/12 06:44:56;;;;;;;67.47;25.65;;;2.90;91.00;;;;;;5019141;28;20031;-78
2020/12/12 06:47:42;;;;;;;73.45;27.38;;;2.90;91.00;;;;;;5021778;28;21887;-77
2020/12/12 06:50:15;;;;;;;69.38;27.38;;;2.90;91.10;;;;;;5035358;28;20036;-77
2020/12/12 06:52:42;;;;;;;70.93;27.52;;;2.90;91.20;;;;;;5015262;28;20012;-76
2020/12/12 06:55:10;;;;;;;68.43;27.00;;;3.00;91.10;;;;;;5047118;28;20048;-77
2020/12/12 06:57:41;;;;;;;70.30;26.95;;;2.90;91.10;;;;;;5036137;28;20388;-78
2020/12/12 07:00:28;;;;;;;71.13;25.65;;;2.90;91.10;;;;;;5020846;28;20479;-78
2020/12/12 07:02:58;;;;;;;72.43;27.33;;;2.90;91.00;;;;;;5015979;28;20526;-78
2020/12/12 07:05:25;;;;;;;67.20;26.10;;;2.90;91.20;;;;;;5032779;28;20029;-77
2020/12/12 07:07:52;;;;;;;68.88;26.48;;;2.90;91.20;;;;;;5014980;28;20029;-78
2020/12/12 07:10:18;;;;;;;65.15;25.70;;;2.90;91.30;;;;;;5012850;28;20029;-77
2020/12/12 07:12:46;;;;;;;61.58;25.58;;;2.90;91.30;;;;;;5043102;28;20400;-78
2020/12/12 07:15:12;;;;;;;65.25;24.50;;;3.00;91.20;;;;;;5014858;28;20079;-78
2020/12/12 07:17:40;;;;;;;79.70;28.77;;;3.00;91.30;;;;;;5033284;28;20024;-78
2020/12/12 07:20:06;;;;;;;68.95;27.20;;;3.00;91.30;;;;;;5031981;28;20519;-78
2020/12/12 07:22:32;;;;;;;71.03;28.00;;;2.90;91.20;;;;;;5014659;28;20032;-78
2020/12/12 07:24:58;;;;;;;71.70;26.67;;;3.00;91.20;;;;;;5014624;28;20037;-78
2020/12/12 07:27:25;;;;;;;71.38;26.92;;;3.00;91.20;;;;;;5015107;28;20463;-78
2020/12/12 07:29:51;;;;;;;70.15;26.10;;;2.90;91.20;;;;;;5014642;28;20021;-77
2020/12/12 07:32:16;;;;;;;72.43;26.08;;;2.90;91.20;;;;;;5028747;28;20035;-77
2020/12/12 07:34:42;;;;;;;75.88;27.30;;;3.00;91.20;;;;;;5020676;28;20029;-77
2020/12/12 07:37:10;;;;;;;71.57;28.80;;;2.90;91.20;;;;;;5018804;28;20071;-77
2020/12/12 07:39:41;;;;;;;76.82;27.55;;;3.00;91.20;;;;;;5019091;28;20021;-75
2020/12/12 07:42:09;;;;;;;68.90;27.38;;;2.90;91.30;;;;;;5029992;28;20025;-76
2020/12/12 07:44:39;;;;;;;72.05;27.67;;;3.00;91.40;;;;;;5040607;28;20496;-76
2020/12/12 07:47:07;;;;;;;82.05;29.20;;;2.90;91.40;;;;;;5016624;28;20033;-76
2020/12/12 07:49:34;;;;;;;68.65;26.80;;;2.90;91.60;;;;;;5032189;28;20546;-76
2020/12/12 07:52:08;;;;;;;76.07;28.55;;;2.90;91.70;;;;;;5036701;28;20388;-75
2020/12/12 07:54:40;;;;;;;70.53;26.67;;;2.90;91.80;;;;;;5023469;28;20110;-75
2020/12/12 07:57:09;;;;;;;79.25;28.90;;;3.00;91.90;;;;;;5031023;28;20025;-76
2020/12/12 07:59:35;;;;;;;75.30;28.73;;;2.90;91.80;;;;;;5011747;28;20021;-76
2020/12/12 08:02:03;;;;;;;79.00;28.33;;;3.00;91.90;;;;;;5025792;28;20036;-75
2020/12/12 08:04:29;;;;;;;73.85;28.50;;;3.00;92.00;;;;;;5031499;28;20115;-76
2020/12/12 08:06:54;;;;;;;75.93;27.55;;;3.00;91.90;;;;;;5033449;28;20174;-76
2020/12/12 08:09:22;;;;;;;75.57;30.00;;;3.00;91.80;;;;;;5032398;28;20035;-76
2020/12/12 08:12:08;;;;;;;77.10;28.05;;;3.00;91.70;;;;;;5030520;28;20068;-77
2020/12/12 08:14:44;;;;;;;73.78;27.95;;;3.00;91.60;;;;;;5053059;28;20041;-77
2020/12/12 08:17:11;;;;;;;74.20;29.25;;;3.00;91.60;;;;;;5047972;28;20021;-77
2020/12/12 08:19:49;;;;;;;74.82;28.58;;;3.00;91.50;;;;;;5012656;28;20396;-77
2020/12/12 08:22:19;;;;;;;76.30;27.38;;;3.00;91.50;;;;;;5014598;28;20025;-76
2020/12/12 08:24:47;;;;;;;72.35;28.65;;;3.00;91.50;;;;;;5017313;28;20033;-76
2020/12/12 08:27:22;;;;;;;74.47;29.92;;;3.00;91.40;;;;;;5036972;28;20067;-77
2020/12/12 08:29:56;;;;;;;74.03;27.48;;;3.00;91.60;;;;;;5018142;28;20078;-77
2020/12/12 08:32:33;;;;;;;77.45;30.73;;;3.00;91.40;;;;;;5033746;28;20159;-76
2020/12/12 08:35:26;;;;;;;77.32;27.73;;;3.00;91.30;;;;;;5029922;28;20385;-76
2020/12/12 08:37:59;;;;;;;67.72;26.40;;;3.10;91.30;;;;;;5031407;28;20035;-75
2020/12/12 08:40:27;;;;;;;69.75;26.77;;;3.10;91.30;;;;;;5047467;28;20025;-75
2020/12/12 08:43:02;;;;;;;72.93;27.98;;;3.10;91.30;;;;;;5033305;28;20033;-75
2020/12/12 08:45:29;;;;;;;81.07;29.38;;;3.10;91.20;;;;;;5032689;28;20031;-75
2020/12/12 08:48:10;;;;;;;79.95;28.50;;;3.10;91.30;;;;;;5037180;28;20025;-75
2020/12/12 08:50:47;;;;;;;74.20;29.50;;;3.10;91.30;;;;;;5019174;28;20067;-75
2020/12/12 08:53:26;;;;;;;72.72;27.00;;;3.10;91.40;;;;;;5012728;28;20061;-75
2020/12/12 08:56:13;;;;;;;72.20;27.52;;;3.10;91.40;;;;;;5018304;28;20404;-75
2020/12/12 08:58:39;;;;;;;76.38;28.30;;;3.10;91.40;;;;;;5019519;28;20087;-75
2020/12/12 09:01:30;;;;;;;71.97;28.58;;;3.10;91.50;;;;;;5013697;28;20032;-74
2020/12/12 09:04:08;;;;;;;75.45;29.83;;;3.10;91.70;;;;;;5050259;28;20107;-75
2020/12/12 09:06:45;;;;;;;72.45;28.25;;;3.10;91.70;;;;;;5015580;28;20483;-75
2020/12/12 09:09:22;;;;;;;70.32;27.63;;;3.20;91.70;;;;;;5009053;28;20037;-76
2020/12/12 09:12:22;;;;;;;75.50;28.55;;;3.20;91.70;;;;;;5015726;28;20025;-76
2020/12/12 09:14:49;;;;;;;69.97;27.92;;;3.10;91.80;;;;;;5026436;28;20142;-75
2020/12/12 09:17:15;;;;;;;77.60;29.50;;;3.10;91.80;;;;;;5036414;28;20022;-76
2020/12/12 09:19:43;;;;;;;78.10;29.17;;;3.10;91.80;;;;;;5032722;28;20029;-75
2020/12/12 09:22:10;;;;;;;71.30;27.42;;;3.10;91.90;;;;;;5014952;28;20179;-76
2020/12/12 09:24:36;;;;;;;80.15;31.25;;;3.20;92.00;;;;;;5041453;28;20037;-76
2020/12/12 09:27:03;;;;;;;77.72;28.27;;;3.20;91.70;;;;;;5030527;28;20044;-75
2020/12/12 09:29:28;;;;;;;73.90;29.52;;;3.20;91.70;;;;;;5012130;28;20040;-76
2020/12/12 09:31:56;;;;;;;74.07;31.30;;;3.20;91.80;;;;;;5015535;28;20025;-75
2020/12/12 09:34:22;;;;;;;74.07;29.65;;;3.10;91.70;;;;;;5034195;28;20107;-76
2020/12/12 09:36:48;;;;;;;70.88;28.20;;;3.10;91.60;;;;;;5016747;28;20029;-75
2020/12/12 09:39:14;;;;;;;71.13;27.92;;;3.20;92.20;;;;;;5032477;28;20033;-76
2020/12/12 09:41:40;;;;;;;73.43;29.48;;;3.20;91.70;;;;;;5017189;28;20515;-76
2020/12/12 09:44:06;;;;;;;71.10;27.35;;;3.20;91.40;;;;;;5033993;28;20024;-75
2020/12/12 09:46:32;;;;;;;70.10;28.75;;;3.20;91.50;;;;;;5032402;28;20025;-76
2020/12/12 09:48:58;;;;;;;74.20;28.35;;;3.30;91.30;;;;;;5022178;28;20032;-76
2020/12/12 09:51:24;;;;;;;66.55;27.15;;;3.20;91.20;;;;;;5015825;28;20024;-76
2020/12/12 09:53:52;;;;;;;66.75;28.98;;;3.30;91.20;;;;;;5015641;28;20496;-78
2020/12/12 09:56:17;;;;;;;69.22;28.55;;;3.30;91.20;;;;;;5015288;28;20025;-76
2020/12/12 09:58:44;;;;;;;66.55;27.42;;;3.30;91.20;;;;;;5013197;28;20027;-74
2020/12/12 10:01:11;;;;;;;80.43;30.05;;;3.30;91.20;;;;;;5016871;28;20067;-78
2020/12/12 10:03:36;;;;;;;69.55;28.88;;;3.30;91.20;;;;;;5013764;28;20060;-76
2020/12/12 10:06:05;;;;;;;78.18;29.27;;;3.30;91.20;;;;;;5016385;28;20065;-75
2020/12/12 10:08:30;;;;;;;75.93;30.63;;;3.30;91.20;;;;;;5012476;28;20036;-75
2020/12/12 10:10:56;;;;;;;70.05;29.17;;;3.30;91.20;;;;;;5016683;28;20168;-77
2020/12/12 10:13:22;;;;;;;72.45;28.55;;;3.30;91.20;;;;;;5050985;28;20044;-76
2020/12/12 10:15:48;;;;;;;72.35;28.40;;;3.30;91.30;;;;;;5020798;28;20044;-75
2020/12/12 10:18:15;;;;;;;77.22;28.30;;;3.30;91.30;;;;;;5027264;28;20029;-76
2020/12/12 10:20:41;;;;;;;71.93;30.10;;;3.40;91.70;;;;;;5050806;28;20024;-76
2020/12/12 10:23:06;;;;;;;68.90;27.58;;;3.40;91.20;;;;;;5031229;28;20048;-75
2020/12/12 10:25:32;;;;;;;64.78;27.02;;;3.40;91.10;;;;;;5016485;28;20494;-76
2020/12/12 10:27:58;;;;;;;71.88;27.63;;;3.40;91.10;;;;;;5019185;28;20024;-75
2020/12/12 10:30:24;;;;;;;70.88;28.30;;;3.40;91.00;;;;;;5034555;28;20017;-75
2020/12/12 10:32:50;;;;;;;69.10;28.48;;;3.40;91.00;;;;;;5021733;28;20020;-77
2020/12/12 10:35:15;;;;;;;70.20;28.08;;;3.40;91.00;;;;;;5033705;28;20025;-76
2020/12/12 10:37:41;;;;;;;69.40;28.23;;;3.40;91.20;;;;;;5032890;28;20028;-76
2020/12/12 10:41:00;;;;;;;68.70;27.60;;;3.50;91.30;;;;;;5036876;28;20028;-76
2020/12/12 10:42:57;;;;;;;75.95;28.90;;;3.70;91.50;;;;;;5027873;28;20095;-76
2020/12/12 10:45:25;;;;;;;58.50;26.52;;;3.70;90.60;;;;;;5010615;28;20640;-79
2020/12/12 10:47:50;;;;;;;65.28;27.50;;;3.70;90.80;;;;;;5051070;28;20931;-76
2020/12/12 10:50:16;;;;;;;69.57;28.33;;;3.60;90.70;;;;;;5027438;28;20033;-75
2020/12/12 10:52:42;;;;;;;65.82;26.42;;;3.60;90.70;;;;;;5031537;28;20040;-76
2020/12/12 10:55:07;;;;;;;61.90;27.83;;;3.60;90.50;;;;;;5047880;28;20054;-77
2020/12/12 10:57:33;;;;;;;68.28;27.80;;;3.60;90.50;;;;;;5018549;28;20496;-76
2020/12/12 11:00:02;;;;;;;68.57;27.33;;;3.60;90.50;;;;;;5015997;28;20111;-76
2020/12/12 11:02:30;;;;;;;69.85;27.00;;;3.60;90.50;;;;;;5052337;28;20029;-76
2020/12/12 11:04:56;;;;;;;65.65;27.65;;;3.60;90.40;;;;;;5050008;28;20029;-76
2020/12/12 11:07:21;;;;;;;63.85;26.33;;;3.50;90.60;;;;;;5025438;28;20036;-77
2020/12/12 11:09:47;;;;;;;69.40;28.75;;;3.50;90.60;;;;;;5041159;22;20073;-75
2020/12/12 11:12:14;;;;;;;62.40;27.23;;;3.50;90.60;;;;;;4984678;28;20120;-75
2020/12/12 11:14:41;;;;;;;69.22;29.77;;;3.60;90.50;;;;;;4988762;28;20482;-75
2020/12/12 11:17:06;;;;;;;64.40;26.77;;;3.60;90.40;;;;;;4994366;28;20069;-75
2020/12/12 11:19:32;;;;;;;70.10;28.95;;;3.60;90.30;;;;;;4985070;28;20058;-75
2020/12/12 11:21:58;;;;;;;69.80;27.85;;;3.60;90.40;;;;;;5015831;28;20109;-77
2020/12/12 11:24:24;;;;;;;62.28;25.58;;;3.60;90.50;;;;;;4989851;28;20481;-75
2020/12/12 11:26:51;;;;;;;62.28;26.88;;;3.50;90.50;;;;;;4977988;28;20033;-75
2020/12/12 11:29:20;;;;;;;64.38;25.40;;;3.60;90.80;;;;;;4990116;28;20117;-75
2020/12/12 11:31:52;;;;;;;60.75;26.35;;;3.60;90.50;;;;;;5002613;28;20113;-76
2020/12/12 11:34:27;;;;;;;66.13;26.67;;;3.60;90.30;;;;;;4974584;28;20019;-75
2020/12/12 11:39:50;;;;;;;73.63;28.38;;;3.60;90.50;;;;;;5003703;28;20493;-75
2020/12/12 11:47:29;;;;;;;59.70;26.65;;;3.60;90.40;;;;;;5013236;28;20026;-75
2020/12/12 11:49:55;;;;;;;63.58;25.92;;;3.60;90.40;;;;;;4982403;28;20080;-75
2020/12/12 11:52:21;;;;;;;64.13;27.08;;;3.60;90.40;;;;;;4988839;28;20029;-75
2020/12/12 11:54:47;;;;;;;62.47;25.67;;;3.60;90.30;;;;;;4997799;28;20093;-75
2020/12/12 11:57:13;;;;;;;70.55;28.00;;;3.80;91.10;;;;;;4974910;28;20114;-75
2020/12/12 11:59:39;;;;;;;67.03;26.55;;;3.80;90.30;;;;;;4989754;28;20113;-75
2020/12/12 12:02:05;;;;;;;68.75;26.70;;;3.80;90.10;;;;;;4986314;28;20496;-75
2020/12/12 12:04:31;;;;;;;66.13;25.85;;;3.80;90.10;;;;;;5005776;28;20151;-75
2020/12/12 12:06:58;;;;;;;63.78;26.73;;;3.80;90.20;;;;;;4994050;28;20023;-76
2020/12/12 12:09:47;;;;;;;62.75;27.17;;;3.80;90.30;;;;;;4980213;28;20775;-76
2020/12/12 12:12:10;;;;;;;64.13;26.58;;;3.80;90.20;;;;;;4997486;28;20104;-75
2020/12/12 12:14:35;;;;;;;75.88;29.92;;;3.80;90.20;;;;;;4977307;28;20018;-75
2020/12/12 12:17:02;;;;;;;61.40;27.80;;;3.80;90.30;;;;;;4980973;28;20029;-76
2020/12/12 12:19:28;;;;;;;57.47;24.52;;;3.80;90.20;;;;;;4993675;28;20556;-76
2020/12/12 12:21:56;;;;;;;68.35;28.08;;;3.80;90.20;;;;;;4986006;28;20030;-77
2020/12/12 12:24:22;;;;;;;57.80;25.05;;;3.80;90.20;;;;;;4994397;28;20320;-76
2020/12/12 12:26:49;;;;;;;59.65;26.90;;;3.80;90.20;;;;;;4991940;28;20022;-77
2020/12/12 12:29:19;;;;;;;58.28;25.52;;;3.80;90.10;;;;;;4990844;28;20038;-76
2020/12/12 12:31:47;;;;;;;63.10;26.48;;;3.80;90.20;;;;;;4981668;28;20030;-75
2020/12/12 12:34:13;;;;;;;60.60;25.38;;;3.80;90.30;;;;;;4987608;28;20026;-77
2020/12/12 12:36:40;;;;;;;55.35;24.83;;;3.80;90.30;;;;;;4996871;28;20466;-77
2020/12/12 12:39:08;;;;;;;60.88;25.33;;;3.80;90.20;;;;;;4995418;28;20018;-76
2020/12/12 12:41:34;;;;;;;60.05;25.52;;;3.80;90.30;;;;;;4998382;28;20022;-76
2020/12/12 12:44:01;;;;;;;58.88;26.45;;;3.80;90.30;;;;;;4993871;28;20029;-78
2020/12/12 12:46:31;;;;;;;60.67;24.80;;;3.80;90.40;;;;;;4990554;28;20027;-75
2020/12/12 12:48:57;;;;;;;52.38;23.65;;;3.80;90.50;;;;;;4986762;28;20057;-74